createdAt,value
2019-02-10T00:00:48.640Z,7.10
2019-02-10T00:03:19.284Z,7.20
2019-02-10T00:05:50.079Z,7.20
2019-02-10T00:08:21.004Z,7.20
2019-02-10T00:10:51.879Z,7.00
2019-02-10T00:13:34.251Z,7.00
2019-02-10T00:16:13.210Z,7.10
2019-02-10T00:18:43.957Z,7.20
2019-02-10T00:21:14.630Z,7.20
2019-02-10T00:23:45.340Z,7.20
2019-02-10T00:26:16.156Z,7.10
2019-02-10T00:28:47.416Z,7.20
2019-02-10T00:31:18.417Z,7.10
2019-02-10T00:33:49.528Z,7.10
2019-02-10T00:36:20.566Z,7.10
2019-02-10T00:38:51.309Z,7.10
2019-02-10T00:41:22.031Z,7.10
2019-02-10T00:43:52.829Z,7.00
2019-02-10T00:46:23.524Z,6.90
2019-02-10T00:48:54.384Z,6.80
2019-02-10T00:51:25.234Z,6.90
2019-02-10T00:53:56.169Z,7.00
2019-02-10T00:56:27.263Z,7.00
2019-02-10T00:58:58.185Z,7.00
2019-02-10T01:01:29.439Z,7.00
2019-02-10T01:04:00.478Z,7.10
2019-02-10T01:06:31.475Z,7.10
2019-02-10T01:09:02.584Z,7.10
2019-02-10T01:11:33.809Z,7.00
2019-02-10T01:14:04.781Z,7.00
2019-02-10T01:16:35.779Z,7.00
2019-02-10T01:19:11.345Z,7.00
2019-02-10T01:21:43.728Z,7.00
2019-02-10T01:24:14.668Z,7.00
2019-02-10T01:26:45.938Z,7.00
2019-02-10T01:29:17.078Z,6.90
2019-02-10T01:31:48.915Z,6.90
2019-02-10T01:34:19.904Z,7.00
2019-02-10T01:36:50.924Z,7.00
2019-02-10T01:39:23.323Z,7.00
2019-02-10T01:41:54.481Z,6.90
2019-02-10T01:44:25.613Z,6.90
2019-02-10T01:46:56.199Z,6.80
2019-02-10T01:49:27.899Z,6.80
2019-02-10T01:51:58.701Z,6.80
2019-02-10T01:54:29.819Z,6.50
2019-02-10T01:57:01.679Z,6.30
2019-02-10T01:59:32.818Z,6.20
2019-02-10T02:02:03.738Z,6.30
2019-02-10T02:04:34.566Z,6.40
2019-02-10T02:07:05.099Z,6.50
2019-02-10T02:09:36.024Z,6.50
2019-02-10T02:12:06.995Z,6.60
2019-02-10T02:14:37.629Z,6.60
2019-02-10T02:17:08.203Z,6.60
2019-02-10T02:19:38.639Z,6.70
2019-02-10T02:22:09.404Z,6.70
2019-02-10T02:24:40.033Z,6.70
2019-02-10T02:27:10.973Z,6.70
2019-02-10T02:29:41.783Z,6.70
2019-02-10T02:32:13.069Z,6.70
2019-02-10T02:34:43.848Z,6.80
2019-02-10T02:37:14.393Z,6.80
2019-02-10T02:39:45.238Z,6.80
2019-02-10T02:42:15.750Z,6.70
2019-02-10T02:44:46.409Z,6.70
2019-02-10T02:47:17.241Z,6.70
2019-02-10T02:49:47.773Z,6.80
2019-02-10T02:52:18.408Z,6.70
2019-02-10T02:54:49.374Z,6.60
2019-02-10T02:57:20.080Z,6.50
2019-02-10T02:59:50.734Z,6.60
2019-02-10T03:02:21.353Z,6.60
2019-02-10T03:04:52.069Z,6.60
2019-02-10T03:07:22.639Z,6.60
2019-02-10T03:09:53.318Z,6.60
2019-02-10T03:12:24.087Z,6.60
2019-02-10T03:14:54.605Z,6.60
2019-02-10T03:17:25.214Z,6.70
2019-02-10T03:19:55.752Z,6.70
2019-02-10T03:22:26.293Z,6.70
2019-02-10T03:24:56.967Z,6.70
2019-02-10T03:27:27.451Z,6.70
2019-02-10T03:29:58.148Z,6.60
2019-02-10T03:32:28.772Z,6.70
2019-02-10T03:34:59.505Z,6.70
2019-02-10T03:37:30.118Z,6.70
2019-02-10T03:40:00.825Z,6.70
2019-02-10T03:42:31.825Z,6.70
2019-02-10T03:45:02.374Z,6.70
2019-02-10T03:47:33.119Z,6.70
2019-02-10T03:50:03.504Z,6.70
2019-02-10T03:52:34.067Z,6.60
2019-02-10T03:55:04.779Z,6.60
2019-02-10T03:57:35.805Z,6.40
2019-02-10T04:00:06.584Z,6.30
2019-02-10T04:02:37.348Z,6.20
2019-02-10T04:05:08.243Z,6.20
2019-02-10T04:07:39.224Z,6.20
2019-02-10T04:10:10.355Z,6.40
2019-02-10T04:12:41.115Z,6.40
2019-02-10T04:15:11.658Z,6.50
2019-02-10T04:17:42.439Z,6.50
2019-02-10T04:20:13.074Z,6.50
2019-02-10T04:22:43.693Z,6.60
2019-02-10T04:25:14.630Z,6.60
2019-02-10T04:27:45.438Z,6.50
2019-02-10T04:30:16.128Z,6.60
2019-02-10T04:32:47.219Z,6.60
2019-02-10T04:35:17.753Z,6.60
2019-02-10T04:37:48.526Z,6.60
2019-02-10T04:40:19.599Z,6.60
2019-02-10T04:42:50.699Z,6.50
2019-02-10T04:45:21.680Z,6.30
2019-02-10T04:47:52.268Z,6.00
2019-02-10T04:50:23.049Z,6.00
2019-02-10T04:52:53.978Z,6.10
2019-02-10T04:55:24.694Z,6.20
2019-02-10T04:57:55.624Z,6.20
2019-02-10T05:00:26.139Z,6.20
2019-02-10T05:02:57.563Z,6.00
2019-02-10T05:05:28.364Z,5.90
2019-02-10T05:07:59.374Z,5.90
2019-02-10T05:10:30.198Z,6.00
2019-02-10T05:13:00.709Z,6.10
2019-02-10T05:15:31.449Z,6.20
2019-02-10T05:18:02.266Z,6.20
2019-02-10T05:20:32.839Z,6.30
2019-02-10T05:23:04.098Z,6.40
2019-02-10T05:25:35.179Z,6.40
2019-02-10T05:28:06.088Z,6.40
2019-02-10T05:30:36.727Z,6.40
2019-02-10T05:33:07.854Z,6.50
2019-02-10T05:35:38.509Z,6.50
2019-02-10T05:38:09.081Z,6.50
2019-02-10T05:40:39.859Z,6.50
2019-02-10T05:43:10.624Z,6.50
2019-02-10T05:45:41.815Z,6.50
2019-02-10T05:48:12.351Z,6.60
2019-02-10T05:50:42.954Z,6.70
2019-02-10T05:53:13.604Z,6.70
2019-02-10T05:55:44.219Z,6.70
2019-02-10T05:58:14.866Z,6.70
2019-02-10T06:00:45.534Z,6.80
2019-02-10T06:03:16.185Z,6.90
2019-02-10T06:05:46.819Z,6.90
2019-02-10T06:08:17.320Z,6.90
2019-02-10T06:10:47.990Z,7.00
2019-02-10T06:13:18.914Z,7.00
2019-02-10T06:15:49.439Z,6.90
2019-02-10T06:18:20.110Z,6.90
2019-02-10T06:20:50.734Z,6.80
2019-02-10T06:23:21.809Z,6.80
2019-02-10T06:25:52.539Z,6.90
2019-02-10T06:28:23.334Z,6.80
2019-02-10T06:30:54.139Z,6.80
2019-02-10T06:33:24.884Z,6.90
2019-02-10T06:35:55.545Z,6.90
2019-02-10T06:38:26.296Z,6.90
2019-02-10T06:40:57.251Z,6.80
2019-02-10T06:43:28.244Z,6.80
2019-02-10T06:45:58.864Z,6.80
2019-02-10T06:48:30.004Z,6.80
2019-02-10T06:51:00.659Z,6.80
2019-02-10T06:53:31.484Z,6.80
2019-02-10T06:56:02.094Z,6.80
2019-02-10T06:58:32.871Z,6.80
2019-02-10T07:01:31.629Z,6.80
2019-02-10T07:04:20.554Z,6.80
2019-02-10T07:06:51.629Z,6.90
2019-02-10T07:09:23.669Z,6.90
2019-02-10T07:11:54.140Z,6.90
2019-02-10T07:14:27.794Z,6.90
2019-02-10T07:17:19.144Z,7.00
2019-02-10T07:20:40.484Z,6.90
2019-02-10T07:23:36.145Z,6.90
2019-02-10T07:26:18.909Z,6.90
2019-02-10T07:29:19.698Z,6.90
2019-02-10T07:32:09.739Z,7.00
2019-02-10T07:35:07.089Z,6.90
2019-02-10T07:38:26.939Z,7.00
2019-02-10T07:41:40.752Z,7.00
2019-02-10T07:44:35.444Z,7.00
2019-02-10T07:47:40.634Z,7.00
2019-02-10T07:50:32.599Z,7.00
2019-02-10T07:53:26.459Z,7.00
2019-02-10T07:56:28.817Z,7.10
2019-02-10T07:59:34.403Z,7.10
2019-02-10T08:05:51.754Z,7.20
2019-02-10T08:08:49.169Z,7.30
2019-02-10T08:11:47.639Z,7.30
2019-02-10T08:14:55.639Z,7.20
2019-02-10T08:17:37.153Z,7.10
2019-02-10T08:20:32.799Z,7.00
2019-02-10T08:23:28.804Z,7.00
2019-02-10T08:26:44.308Z,7.00
2019-02-10T08:29:33.838Z,7.10
2019-02-10T08:32:31.113Z,7.10
2019-02-10T08:35:46.924Z,7.10
2019-02-10T08:38:54.508Z,7.10
2019-02-10T08:41:52.374Z,7.10
2019-02-10T08:44:43.868Z,7.10
2019-02-10T08:47:37.204Z,7.00
2019-02-10T08:50:45.774Z,7.10
2019-02-10T08:53:20.783Z,7.10
2019-02-10T08:55:51.381Z,7.10
2019-02-10T08:58:22.044Z,7.10
2019-02-10T09:00:52.669Z,7.10
2019-02-10T09:03:24.268Z,7.00
2019-02-10T09:05:54.726Z,7.00
2019-02-10T09:08:25.579Z,7.00
2019-02-10T09:10:56.154Z,7.10
2019-02-10T09:13:26.923Z,7.10
2019-02-10T09:15:57.538Z,7.00
2019-02-10T09:18:28.319Z,7.10
2019-02-10T09:20:59.493Z,7.20
2019-02-10T09:23:30.200Z,7.20
2019-02-10T09:26:01.009Z,7.20
2019-02-10T09:28:31.498Z,7.20
2019-02-10T09:31:02.476Z,7.20
2019-02-10T09:33:33.056Z,7.10
2019-02-10T09:36:03.689Z,7.00
2019-02-10T09:38:34.789Z,7.10
2019-02-10T09:41:05.564Z,7.20
2019-02-10T09:43:36.748Z,7.30
2019-02-10T09:46:07.744Z,7.30
2019-02-10T09:48:38.655Z,7.20
2019-02-10T09:51:10.544Z,7.30
2019-02-10T09:53:41.584Z,7.30
2019-02-10T09:56:12.634Z,7.40
2019-02-10T09:58:43.098Z,7.40
2019-02-10T10:01:14.831Z,7.50
2019-02-10T10:03:45.683Z,7.60
2019-02-10T10:06:17.054Z,7.70
2019-02-10T10:08:48.044Z,7.80
2019-02-10T10:11:18.796Z,8.00
2019-02-10T10:13:51.984Z,8.00
2019-02-10T10:16:23.004Z,8.00
2019-02-10T10:18:53.563Z,7.80
2019-02-10T10:21:24.374Z,7.70
2019-02-10T10:23:54.978Z,7.70
2019-02-10T10:26:25.679Z,7.60
2019-02-10T10:29:00.338Z,7.70
2019-02-10T10:31:31.103Z,7.80
2019-02-10T10:34:07.009Z,7.80
2019-02-10T10:36:38.564Z,7.70
2019-02-10T10:39:09.345Z,7.70
2019-02-10T10:41:40.084Z,7.60
2019-02-10T10:44:11.060Z,7.60
2019-02-10T10:46:41.565Z,7.60
2019-02-10T10:49:12.348Z,7.60
2019-02-10T10:51:43.264Z,7.50
2019-02-10T10:54:13.866Z,7.40
2019-02-10T10:56:44.511Z,7.30
2019-02-10T10:59:15.264Z,7.40
2019-02-10T11:01:45.829Z,7.30
2019-02-10T11:04:16.644Z,7.30
2019-02-10T11:06:47.554Z,7.30
2019-02-10T11:09:18.204Z,7.30
2019-02-10T11:11:49.118Z,7.20
2019-02-10T11:14:20.334Z,7.20
2019-02-10T11:16:50.839Z,7.20
2019-02-10T11:19:22.294Z,7.30
2019-02-10T11:21:52.958Z,7.30
2019-02-10T11:24:28.492Z,7.30
2019-02-10T11:26:56.629Z,7.30
2019-02-10T11:29:27.303Z,7.30
2019-02-10T11:31:58.078Z,7.30
2019-02-10T11:34:28.859Z,7.20
2019-02-10T11:37:00.128Z,7.20
2019-02-10T11:39:31.514Z,7.20
2019-02-10T11:42:02.569Z,7.20
2019-02-10T11:44:33.469Z,7.20
2019-02-10T11:47:04.099Z,7.30
2019-02-10T11:49:35.118Z,7.30
2019-02-10T11:52:06.112Z,7.20
2019-02-10T11:54:36.710Z,7.20
2019-02-10T11:57:07.599Z,7.20
2019-02-10T11:59:38.294Z,7.20
2019-02-10T12:02:09.674Z,7.20
2019-02-10T12:04:41.048Z,7.10
2019-02-10T12:07:12.144Z,7.20
2019-02-10T12:09:51.382Z,7.20
2019-02-10T12:12:16.386Z,7.20
2019-02-10T12:14:47.049Z,7.30
2019-02-10T12:17:17.915Z,7.30
2019-02-10T12:19:48.824Z,7.40
2019-02-10T12:22:20.125Z,7.20
2019-02-10T12:24:50.860Z,7.30
2019-02-10T12:27:22.005Z,7.30
2019-02-10T12:29:52.864Z,7.30
2019-02-10T12:32:23.997Z,7.30
2019-02-10T12:34:55.214Z,7.20
2019-02-10T12:37:32.262Z,7.10
2019-02-10T12:39:59.808Z,7.20
2019-02-10T12:42:30.389Z,7.00
2019-02-10T12:45:01.631Z,7.10
2019-02-10T12:47:32.504Z,7.10
2019-02-10T12:50:03.223Z,7.00
2019-02-10T12:52:33.824Z,7.10
2019-02-10T12:55:04.511Z,7.20
2019-02-10T12:57:35.414Z,7.20
2019-02-10T13:00:06.989Z,7.20
2019-02-10T13:02:37.694Z,7.00
2019-02-10T13:05:08.681Z,7.00
2019-02-10T13:07:39.489Z,7.00
2019-02-10T13:10:11.714Z,7.00
2019-02-10T13:12:42.638Z,7.10
2019-02-10T13:15:13.609Z,7.20
2019-02-10T13:17:44.889Z,7.10
2019-02-10T13:20:16.179Z,7.20
2019-02-10T13:22:46.865Z,7.20
2019-02-10T13:25:17.540Z,7.20
2019-02-10T13:27:48.533Z,7.20
2019-02-10T13:30:19.309Z,7.10
2019-02-10T13:32:49.947Z,7.20
2019-02-10T13:35:21.314Z,7.30
2019-02-10T13:37:52.239Z,7.30
2019-02-10T13:40:23.544Z,7.30
2019-02-10T13:42:54.618Z,7.30
2019-02-10T13:45:25.266Z,7.20
2019-02-10T13:47:56.224Z,7.20
2019-02-10T13:50:27.352Z,7.20
2019-02-10T13:52:58.068Z,7.20
2019-02-10T13:55:28.799Z,7.20
2019-02-10T13:57:59.729Z,7.20
2019-02-10T14:00:30.649Z,7.20
2019-02-10T14:03:01.665Z,7.20
2019-02-10T14:05:32.294Z,7.10
2019-02-10T14:08:03.349Z,7.10
2019-02-10T14:10:34.154Z,7.10
2019-02-10T14:13:05.264Z,7.10
2019-02-10T14:15:36.335Z,7.10
2019-02-10T14:18:07.430Z,7.10
2019-02-10T14:20:38.989Z,7.10
2019-02-10T14:23:09.734Z,7.00
2019-02-10T14:25:40.665Z,7.00
2019-02-10T14:28:11.653Z,6.90
2019-02-10T14:30:42.344Z,6.90
2019-02-10T14:33:13.430Z,7.00
2019-02-10T14:35:44.567Z,7.00
2019-02-10T14:38:15.225Z,7.00
2019-02-10T14:40:45.846Z,7.00
2019-02-10T14:43:16.599Z,7.10
2019-02-10T14:45:47.325Z,7.00
2019-02-10T14:48:18.241Z,7.00
2019-02-10T14:50:49.256Z,7.00
2019-02-10T14:53:20.344Z,6.90
2019-02-10T14:55:51.125Z,6.90
2019-02-10T14:58:22.069Z,6.90
2019-02-10T15:00:52.825Z,6.90
2019-02-10T15:03:23.490Z,6.90
2019-02-10T15:05:54.304Z,7.00
2019-02-10T15:08:25.124Z,6.90
2019-02-10T15:10:55.694Z,6.90
2019-02-10T15:13:26.564Z,6.90
2019-02-10T15:15:57.205Z,6.90
2019-02-10T15:18:28.061Z,7.00
2019-02-10T15:20:58.784Z,6.90
2019-02-10T15:23:29.429Z,6.80
2019-02-10T15:26:00.189Z,6.80
2019-02-10T15:28:30.940Z,6.80
2019-02-10T15:31:01.505Z,6.80
2019-02-10T15:33:32.124Z,6.80
2019-02-10T15:36:02.925Z,6.80
2019-02-10T15:38:33.575Z,6.80
2019-02-10T15:41:04.228Z,6.90
2019-02-10T15:43:34.924Z,6.80
2019-02-10T15:46:05.484Z,6.80
2019-02-10T15:48:36.474Z,6.80
2019-02-10T15:51:07.283Z,6.90
2019-02-10T15:53:37.721Z,6.90
2019-02-10T15:56:08.330Z,6.90
2019-02-10T15:58:39.203Z,6.90
2019-02-10T16:01:09.824Z,6.90
2019-02-10T16:03:40.509Z,6.80
2019-02-10T16:06:11.384Z,6.90
2019-02-10T16:08:44.145Z,7.00
2019-02-10T16:11:15.094Z,7.00
2019-02-10T16:13:45.959Z,6.70
2019-02-10T16:16:19.766Z,6.60
2019-02-10T16:18:52.169Z,6.70
2019-02-10T16:21:23.059Z,6.70
2019-02-10T16:23:54.144Z,6.70
2019-02-10T16:26:24.854Z,6.80
2019-02-10T16:28:55.969Z,6.80
2019-02-10T16:31:26.749Z,6.70
2019-02-10T16:33:57.644Z,6.70
2019-02-10T16:36:28.307Z,6.70
2019-02-10T16:38:58.999Z,6.70
2019-02-10T16:41:31.466Z,6.70
2019-02-10T16:44:02.966Z,6.60
2019-02-10T16:46:34.360Z,6.70
2019-02-10T16:49:05.809Z,6.50
2019-02-10T16:51:36.744Z,6.50
2019-02-10T16:54:08.233Z,6.40
2019-02-10T16:56:39.486Z,6.40
2019-02-10T16:59:10.814Z,6.40
2019-02-10T17:01:42.849Z,6.40
2019-02-10T17:04:14.120Z,6.30
2019-02-10T17:06:45.470Z,6.10
2019-02-10T17:09:17.123Z,6.00
2019-02-10T17:11:49.944Z,6.00
2019-02-10T17:14:21.044Z,6.00
2019-02-10T17:16:53.064Z,5.90
2019-02-10T17:19:24.304Z,6.00
2019-02-10T17:21:55.629Z,6.00
2019-02-10T17:24:26.740Z,6.00
2019-02-10T17:26:57.218Z,6.00
2019-02-10T17:29:28.755Z,5.90
2019-02-10T17:31:59.889Z,5.90
2019-02-10T17:34:31.825Z,5.90
2019-02-10T17:37:03.424Z,5.90
2019-02-10T17:39:36.500Z,6.00
2019-02-10T17:42:10.259Z,6.00
2019-02-10T17:44:41.954Z,6.00
2019-02-10T17:47:13.119Z,6.00
2019-02-10T17:49:44.209Z,6.00
2019-02-10T17:52:16.404Z,6.00
2019-02-10T17:54:47.124Z,6.00
2019-02-10T17:57:19.459Z,6.00
2019-02-10T17:59:53.205Z,6.00
2019-02-10T18:02:25.696Z,6.00
2019-02-10T18:04:57.485Z,6.00
2019-02-10T18:07:29.384Z,6.00
2019-02-10T18:10:01.639Z,6.00
2019-02-10T18:12:38.142Z,6.00
2019-02-10T18:15:26.389Z,6.00
2019-02-10T18:18:27.719Z,6.00
2019-02-10T18:21:19.089Z,6.00
2019-02-10T18:24:06.784Z,6.00
2019-02-10T18:27:05.124Z,6.00
2019-02-10T18:30:03.944Z,6.10
2019-02-10T18:32:51.744Z,6.10
2019-02-10T18:35:56.345Z,6.20
2019-02-10T18:38:51.699Z,6.20
2019-02-10T18:41:44.125Z,6.20
2019-02-10T18:44:23.459Z,6.20
2019-02-10T18:47:19.749Z,6.10
2019-02-10T18:50:09.135Z,6.10
2019-02-10T18:53:04.435Z,6.00
2019-02-10T18:55:51.674Z,6.10
2019-02-10T18:58:31.514Z,6.10
2019-02-10T19:01:19.245Z,6.10
2019-02-10T19:04:14.684Z,6.20
2019-02-10T19:06:56.064Z,6.10
2019-02-10T19:09:49.625Z,6.00
2019-02-10T19:12:41.664Z,6.00
2019-02-10T19:15:39.303Z,5.90
2019-02-10T19:18:41.580Z,6.00
2019-02-10T19:21:30.979Z,6.00
2019-02-10T19:24:33.792Z,5.90
2019-02-10T19:27:59.475Z,5.90
2019-02-10T19:31:00.350Z,5.90
2019-02-10T19:34:09.784Z,5.90
2019-02-10T19:37:16.917Z,5.90
2019-02-10T19:40:10.104Z,5.90
2019-02-10T19:42:53.194Z,5.90
2019-02-10T19:45:48.863Z,5.90
2019-02-10T19:48:50.339Z,5.90
2019-02-10T19:51:36.953Z,6.00
2019-02-10T19:54:14.224Z,6.00
2019-02-10T19:57:12.546Z,6.00
2019-02-10T20:00:06.609Z,5.90
2019-02-10T20:03:14.294Z,5.80
2019-02-10T20:06:18.444Z,5.80
2019-02-10T20:09:34.229Z,5.90
2019-02-10T20:12:25.094Z,5.90
2019-02-10T20:15:06.536Z,5.90
2019-02-10T20:18:07.724Z,5.90
2019-02-10T20:20:57.880Z,5.90
2019-02-10T20:23:42.045Z,5.90
2019-02-10T20:26:38.589Z,5.90
2019-02-10T20:29:24.581Z,5.90
2019-02-10T20:32:23.710Z,5.90
2019-02-10T20:35:13.297Z,6.00
2019-02-10T20:38:15.105Z,6.00
2019-02-10T20:41:01.469Z,6.00
2019-02-10T20:43:56.806Z,6.00
2019-02-10T20:46:57.907Z,6.00
2019-02-10T20:49:48.775Z,6.00
2019-02-10T20:52:35.664Z,6.00
2019-02-10T20:55:27.909Z,6.10
2019-02-10T20:58:28.151Z,6.10
2019-02-10T21:01:21.719Z,6.00
2019-02-10T21:04:05.744Z,6.00
2019-02-10T21:06:54.171Z,6.10
2019-02-10T21:09:33.025Z,6.20
2019-02-10T21:12:28.129Z,6.20
2019-02-10T21:15:16.393Z,6.20
2019-02-10T21:18:15.159Z,6.30
2019-02-10T21:20:53.434Z,6.20
2019-02-10T21:23:58.083Z,6.20
2019-02-10T21:26:50.012Z,6.30
2019-02-10T21:29:42.991Z,6.30
2019-02-10T21:32:30.699Z,6.20
2019-02-10T21:35:26.710Z,6.20
2019-02-10T21:38:15.239Z,6.10
2019-02-10T21:41:02.054Z,6.00
2019-02-10T21:43:44.756Z,5.80
2019-02-10T21:46:30.439Z,5.70
2019-02-10T21:49:07.314Z,5.70
2019-02-10T21:51:38.536Z,5.70
2019-02-10T21:54:09.703Z,5.80
2019-02-10T21:56:40.479Z,5.70
2019-02-10T21:59:11.398Z,5.70
2019-02-10T22:01:42.073Z,5.60
2019-02-10T22:04:13.224Z,5.50
2019-02-10T22:06:44.168Z,5.60
2019-02-10T22:09:14.994Z,5.60
2019-02-10T22:11:45.603Z,5.60
2019-02-10T22:14:16.339Z,5.60
2019-02-10T22:16:47.209Z,5.60
2019-02-10T22:19:17.825Z,5.70
2019-02-10T22:21:48.903Z,5.60
2019-02-10T22:24:19.613Z,5.60
2019-02-10T22:26:53.120Z,5.50
2019-02-10T22:29:24.426Z,5.50
2019-02-10T22:31:55.083Z,5.50
2019-02-10T22:34:26.057Z,5.50
2019-02-10T22:36:56.694Z,5.50
2019-02-10T22:39:27.263Z,5.40
2019-02-10T22:41:57.945Z,5.40
2019-02-10T22:44:28.674Z,5.40
2019-02-10T22:46:59.191Z,5.40
2019-02-10T22:49:29.804Z,5.40
2019-02-10T22:52:01.063Z,5.50
2019-02-10T22:54:32.049Z,5.50
2019-02-10T22:57:02.604Z,5.50
2019-02-10T22:59:33.673Z,5.50
2019-02-10T23:02:04.623Z,5.50
2019-02-10T23:04:35.298Z,5.50
2019-02-10T23:07:06.329Z,5.50
2019-02-10T23:09:37.209Z,5.50
2019-02-10T23:12:07.959Z,5.50
2019-02-10T23:14:39.048Z,5.50
2019-02-10T23:17:09.574Z,5.50
2019-02-10T23:19:40.344Z,5.50
2019-02-10T23:22:10.919Z,5.50
2019-02-10T23:24:41.948Z,5.50
2019-02-10T23:27:12.723Z,5.50
2019-02-10T23:29:44.004Z,5.40
2019-02-10T23:32:14.664Z,5.40
2019-02-10T23:34:45.531Z,5.30
2019-02-10T23:37:16.749Z,5.20
2019-02-10T23:39:47.475Z,5.20
2019-02-10T23:42:18.154Z,5.00
2019-02-10T23:44:49.279Z,4.90
2019-02-10T23:47:19.914Z,4.80
2019-02-10T23:49:50.594Z,4.70
2019-02-10T23:52:21.559Z,4.70
2019-02-10T23:54:52.222Z,4.60
2019-02-10T23:57:23.021Z,4.50
2019-02-10T23:59:53.929Z,4.50
